Time;durP1;ratioP1;P1;durP2;ratioP2;P2;SDS_P1;SDS_P2;PMS_P1;PMS_P2;Temp;Humidity;BMP_temperature;BMP_pressure;BME280_temperature;BME280_humidity;BME280_pressure;Samples;Min_cycle;Max_cycle;Signal;HPM_P1;HPM_P2
2021/05/14 00:01:19;;;;;;;30.42;12.25;;;10.30;99.90;;;;;;5007718;28;20052;-62
2021/05/14 00:03:44;;;;;;;34.20;12.40;;;10.30;99.90;;;;;;5007646;28;20036;-62
2021/05/14 00:06:10;;;;;;;43.90;14.05;;;10.30;99.90;;;;;;5008699;28;20045;-62
2021/05/14 00:08:36;;;;;;;31.75;11.65;;;10.30;99.90;;;;;;5009138;28;20072;-62
2021/05/14 00:11:02;;;;;;;33.03;11.55;;;10.40;99.90;;;;;;5005475;28;20067;-62
2021/05/14 00:13:28;;;;;;;31.08;10.60;;;10.30;99.90;;;;;;5008496;28;20029;-62
2021/05/14 00:15:54;;;;;;;33.10;12.00;;;10.30;99.90;;;;;;5006897;28;20046;-62
2021/05/14 00:18:20;;;;;;;26.13;10.55;;;10.30;99.90;;;;;;5007703;28;20647;-62
2021/05/14 00:20:47;;;;;;;36.42;12.07;;;10.30;99.90;;;;;;5006838;28;20030;-62
2021/05/14 00:23:13;;;;;;;29.73;11.95;;;10.30;99.90;;;;;;5006711;28;20085;-62
2021/05/14 00:25:40;;;;;;;34.13;11.18;;;10.30;99.90;;;;;;5009092;28;20101;-62
2021/05/14 00:28:06;;;;;;;29.67;11.30;;;10.30;99.90;;;;;;5006676;28;20029;-62
2021/05/14 00:30:32;;;;;;;29.02;11.00;;;10.30;99.90;;;;;;5007863;28;20036;-62
2021/05/14 00:32:58;;;;;;;34.88;11.27;;;10.40;99.90;;;;;;5006763;28;20025;-62
2021/05/14 00:35:24;;;;;;;32.67;11.38;;;10.30;99.90;;;;;;5005882;28;20786;-62
2021/05/14 00:37:50;;;;;;;34.47;10.57;;;10.30;99.90;;;;;;5007302;28;20464;-62
2021/05/14 00:40:16;;;;;;;37.53;11.05;;;10.20;99.90;;;;;;5007956;28;20055;-62
2021/05/14 00:42:42;;;;;;;37.97;11.90;;;10.30;99.90;;;;;;5006437;28;20149;-62
2021/05/14 00:45:09;;;;;;;35.38;11.68;;;10.20;99.90;;;;;;5008083;28;20056;-62
2021/05/14 00:47:35;;;;;;;29.23;10.63;;;10.20;99.90;;;;;;5006810;28;20029;-62
2021/05/14 00:50:01;;;;;;;42.42;12.02;;;10.30;99.90;;;;;;5007612;28;20111;-62
2021/05/14 00:52:28;;;;;;;35.45;13.60;;;10.30;99.90;;;;;;5007151;28;20025;-62
2021/05/14 00:54:54;;;;;;;32.78;13.75;;;10.30;99.90;;;;;;5006803;28;20038;-62
2021/05/14 00:57:21;;;;;;;50.67;15.30;;;10.30;99.90;;;;;;5006299;28;20354;-62
2021/05/14 00:59:48;;;;;;;47.47;15.30;;;10.30;99.90;;;;;;5006397;28;20029;-63
2021/05/14 01:02:16;;;;;;;46.83;16.50;;;10.40;99.90;;;;;;5006123;28;20614;-62
2021/05/14 01:04:42;;;;;;;50.45;16.60;;;10.40;99.90;;;;;;5006894;28;20084;-62
2021/05/14 01:07:10;;;;;;;35.85;13.43;;;10.40;99.90;;;;;;5006103;28;20026;-63
2021/05/14 01:09:39;;;;;;;48.58;16.40;;;10.30;99.90;;;;;;5007478;28;20044;-62
2021/05/14 01:12:07;;;;;;;41.57;17.17;;;10.40;99.90;;;;;;5008511;28;20657;-63
2021/05/14 01:14:33;;;;;;;48.90;18.77;;;10.40;99.90;;;;;;5006131;28;20542;-62
2021/05/14 01:16:58;;;;;;;53.17;19.92;;;10.40;99.90;;;;;;5008310;28;20049;-62
2021/05/14 01:19:24;;;;;;;46.95;19.48;;;10.40;99.90;;;;;;5005726;28;20916;-62
2021/05/14 01:21:50;;;;;;;39.05;18.65;;;10.40;99.90;;;;;;5007785;28;20041;-63
2021/05/14 01:24:17;;;;;;;65.75;20.60;;;10.30;99.90;;;;;;5007368;28;20133;-62
2021/05/14 01:26:43;;;;;;;55.40;21.05;;;10.30;99.90;;;;;;5005299;28;20028;-62
2021/05/14 01:29:11;;;;;;;57.00;20.00;;;10.30;99.90;;;;;;5006516;28;20037;-62
2021/05/14 01:31:38;;;;;;;40.25;18.48;;;10.30;99.90;;;;;;5004773;28;20059;-63
2021/05/14 01:34:07;;;;;;;48.42;20.63;;;10.30;99.90;;;;;;5006253;28;20362;-63
2021/05/14 01:36:34;;;;;;;44.47;19.20;;;10.20;99.90;;;;;;5005832;28;20427;-63
2021/05/14 01:39:12;;;;;;;43.35;19.35;;;10.20;99.90;;;;;;5007112;28;20038;-63
2021/05/14 01:41:38;;;;;;;50.05;19.63;;;10.30;99.90;;;;;;5006552;28;20044;-63
2021/05/14 01:44:05;;;;;;;44.53;20.52;;;10.30;99.90;;;;;;5006338;28;20572;-63
2021/05/14 01:46:31;;;;;;;46.63;20.73;;;10.40;99.90;;;;;;5006648;28;20022;-67
2021/05/14 01:48:57;;;;;;;42.83;19.40;;;10.40;99.90;;;;;;5006583;28;20033;-63
2021/05/14 01:51:23;;;;;;;44.67;19.75;;;10.40;99.90;;;;;;5004980;28;20033;-63
2021/05/14 01:53:50;;;;;;;39.67;19.15;;;10.40;99.90;;;;;;5005609;28;20029;-62
2021/05/14 01:56:17;;;;;;;39.28;17.77;;;10.50;99.90;;;;;;5007834;28;20051;-62
2021/05/14 01:58:42;;;;;;;39.08;17.10;;;10.40;99.90;;;;;;5006412;28;20490;-62
2021/05/14 02:01:09;;;;;;;40.10;17.05;;;10.40;99.90;;;;;;5003161;28;20045;-62
2021/05/14 02:03:35;;;;;;;47.72;18.10;;;10.40;99.90;;;;;;5004537;28;20120;-62
2021/05/14 02:06:01;;;;;;;33.40;15.75;;;10.40;99.90;;;;;;5000785;28;20029;-62
2021/05/14 02:08:27;;;;;;;47.75;17.00;;;10.40;99.90;;;;;;5004899;28;20071;-62
2021/05/14 02:10:53;;;;;;;39.85;16.10;;;10.40;99.90;;;;;;5005128;28;20037;-62
2021/05/14 02:13:19;;;;;;;39.53;16.55;;;10.40;99.90;;;;;;5005746;28;20595;-63
2021/05/14 02:15:45;;;;;;;30.20;14.88;;;10.40;99.90;;;;;;5003886;28;20363;-63
2021/05/14 02:18:11;;;;;;;44.10;15.63;;;10.40;99.90;;;;;;5004220;28;20075;-62
2021/05/14 02:20:37;;;;;;;47.03;16.23;;;10.40;99.90;;;;;;5005778;28;20037;-62
2021/05/14 02:23:03;;;;;;;40.83;16.50;;;10.40;99.90;;;;;;5005325;28;20041;-63
2021/05/14 02:25:29;;;;;;;39.75;15.70;;;10.40;99.90;;;;;;5006250;28;20204;-62
2021/05/14 02:27:55;;;;;;;41.35;15.50;;;10.50;99.90;;;;;;5005601;28;20037;-62
2021/05/14 02:30:21;;;;;;;37.88;16.83;;;10.50;99.90;;;;;;5007028;28;20030;-63
2021/05/14 02:32:47;;;;;;;40.30;15.63;;;10.40;99.90;;;;;;5002550;28;20084;-62
2021/05/14 02:35:13;;;;;;;51.40;15.25;;;10.40;99.90;;;;;;5006701;28;20502;-63
2021/05/14 02:37:40;;;;;;;46.38;14.85;;;10.40;99.90;;;;;;5005837;28;20041;-63
2021/05/14 02:40:06;;;;;;;45.80;15.90;;;10.40;99.90;;;;;;5005577;28;20555;-63
2021/05/14 02:42:32;;;;;;;45.65;16.15;;;10.40;99.90;;;;;;5004548;28;20033;-63
2021/05/14 02:44:58;;;;;;;43.03;15.93;;;10.40;99.90;;;;;;5007171;28;20606;-63
2021/05/14 02:47:24;;;;;;;39.08;15.45;;;10.40;99.90;;;;;;5004460;28;20036;-63
2021/05/14 02:49:50;;;;;;;46.75;14.05;;;10.40;99.90;;;;;;5004634;28;20374;-63
2021/05/14 02:52:16;;;;;;;47.03;15.52;;;10.30;99.90;;;;;;5004320;28;20061;-62
2021/05/14 02:54:42;;;;;;;39.60;15.85;;;10.40;99.90;;;;;;5006729;28;20040;-63
2021/05/14 02:57:07;;;;;;;44.33;16.02;;;10.40;99.90;;;;;;5005955;28;20633;-62
2021/05/14 02:59:34;;;;;;;38.58;16.17;;;10.30;99.90;;;;;;5004254;28;20056;-63
2021/05/14 03:02:00;;;;;;;47.70;15.80;;;10.30;99.90;;;;;;5003246;28;20026;-63
2021/05/14 03:04:26;;;;;;;51.33;15.38;;;10.30;99.90;;;;;;5005926;28;20051;-62
2021/05/14 03:06:51;;;;;;;50.58;17.40;;;10.30;99.90;;;;;;5005456;28;20036;-62
2021/05/14 03:09:17;;;;;;;47.25;16.20;;;10.30;99.90;;;;;;5005430;28;20026;-63
2021/05/14 03:11:43;;;;;;;51.30;16.45;;;10.40;99.90;;;;;;5005921;28;20492;-63
2021/05/14 03:14:09;;;;;;;43.83;14.77;;;10.50;99.90;;;;;;5005973;28;20064;-63
2021/05/14 03:16:36;;;;;;;46.95;17.23;;;10.40;99.90;;;;;;5004248;28;20132;-63
2021/05/14 03:19:03;;;;;;;51.72;15.20;;;10.40;99.90;;;;;;5005567;28;20029;-62
2021/05/14 03:21:31;;;;;;;52.63;15.18;;;10.40;99.90;;;;;;5004994;28;20045;-63
2021/05/14 03:23:59;;;;;;;42.33;14.68;;;10.30;99.90;;;;;;5005792;28;20639;-62
2021/05/14 03:26:26;;;;;;;40.20;15.52;;;10.40;99.90;;;;;;5008451;28;20034;-63
2021/05/14 03:28:52;;;;;;;43.33;15.05;;;10.30;99.90;;;;;;5010108;28;20030;-63
2021/05/14 03:31:18;;;;;;;40.20;15.25;;;10.30;99.90;;;;;;5006980;28;20384;-63
2021/05/14 03:33:44;;;;;;;38.75;14.40;;;10.30;99.90;;;;;;5006653;28;20036;-63
2021/05/14 03:36:10;;;;;;;42.53;14.50;;;10.20;99.90;;;;;;5007325;28;20442;-62
2021/05/14 03:38:37;;;;;;;27.83;13.45;;;10.30;99.90;;;;;;5008874;28;20366;-63
2021/05/14 03:41:16;;;;;;;29.05;13.35;;;10.30;99.90;;;;;;5007184;28;20029;-63
2021/05/14 03:43:42;;;;;;;29.77;13.57;;;10.20;99.90;;;;;;5009022;28;20494;-63
2021/05/14 03:46:07;;;;;;;32.38;13.43;;;10.20;99.90;;;;;;5006321;28;20351;-62
2021/05/14 03:48:34;;;;;;;45.25;17.70;;;10.20;99.90;;;;;;5009155;28;20471;-62
2021/05/14 03:50:59;;;;;;;34.72;15.40;;;10.20;99.90;;;;;;5006433;28;20034;-63
2021/05/14 03:53:26;;;;;;;36.17;14.48;;;10.10;99.90;;;;;;5008262;28;20064;-63
2021/05/14 03:55:52;;;;;;;36.15;14.80;;;10.20;99.90;;;;;;5007769;28;20069;-63
2021/05/14 03:58:18;;;;;;;32.28;13.25;;;10.20;99.90;;;;;;5010090;28;20132;-63
2021/05/14 04:00:45;;;;;;;40.85;15.65;;;10.10;99.90;;;;;;5007177;28;20041;-63
2021/05/14 04:03:12;;;;;;;45.35;15.70;;;10.10;99.90;;;;;;5007855;28;20530;-63
2021/05/14 04:05:40;;;;;;;31.50;14.55;;;10.20;99.90;;;;;;5007688;28;20464;-63
2021/05/14 04:08:06;;;;;;;40.42;14.50;;;10.10;99.90;;;;;;5009247;28;20034;-63
2021/05/14 04:15:44;;;;;;;39.85;13.07;;;10.10;99.90;;;;;;5007316;28;20140;-63
2021/05/14 04:18:10;;;;;;;39.17;12.13;;;10.20;99.90;;;;;;5001975;28;20030;-63
2021/05/14 04:20:37;;;;;;;46.40;12.95;;;10.10;99.90;;;;;;5007646;28;20564;-63
2021/05/14 04:23:04;;;;;;;35.38;12.90;;;10.10;99.90;;;;;;5008072;28;20045;-63
2021/05/14 04:25:37;;;;;;;39.47;13.32;;;10.10;99.90;;;;;;5007673;28;20034;-63
2021/05/14 04:28:03;;;;;;;38.25;13.90;;;10.10;99.90;;;;;;5007592;28;20029;-63
2021/05/14 04:30:31;;;;;;;31.50;12.82;;;10.10;99.90;;;;;;5005455;28;20026;-63
2021/05/14 04:32:58;;;;;;;35.10;13.30;;;10.10;99.90;;;;;;5008626;28;20026;-63
2021/05/14 04:35:26;;;;;;;43.10;14.50;;;10.00;99.90;;;;;;5007291;28;20073;-64
2021/05/14 04:37:52;;;;;;;36.72;13.80;;;10.10;99.90;;;;;;5002631;28;20593;-63
2021/05/14 04:40:18;;;;;;;41.72;13.50;;;10.10;99.90;;;;;;5002019;28;20037;-63
2021/05/14 04:42:44;;;;;;;37.60;12.95;;;10.10;99.90;;;;;;5004641;28;20475;-63
2021/05/14 04:45:10;;;;;;;36.15;12.95;;;10.20;99.90;;;;;;5004759;28;20068;-63
2021/05/14 04:47:36;;;;;;;43.58;13.48;;;10.20;99.90;;;;;;5004387;28;20022;-63
2021/05/14 04:50:03;;;;;;;37.00;12.32;;;10.20;99.90;;;;;;5005142;28;20532;-63
2021/05/14 04:52:30;;;;;;;33.38;11.95;;;10.20;99.90;;;;;;5008153;28;20134;-63
2021/05/14 04:54:56;;;;;;;27.23;12.07;;;10.10;99.90;;;;;;5001537;28;21059;-64
2021/05/14 04:57:22;;;;;;;32.08;12.13;;;10.20;99.90;;;;;;5005787;28;20477;-63
2021/05/14 04:59:48;;;;;;;38.05;13.38;;;10.20;99.90;;;;;;5005709;28;20052;-63
2021/05/14 05:02:14;;;;;;;38.15;13.93;;;10.20;99.90;;;;;;5004622;28;20116;-63
2021/05/14 05:04:42;;;;;;;49.20;14.27;;;10.20;99.90;;;;;;5005346;28;20033;-63
2021/05/14 05:07:08;;;;;;;38.45;13.60;;;10.20;99.90;;;;;;5006064;28;20769;-63
2021/05/14 05:09:35;;;;;;;45.90;14.30;;;10.20;99.90;;;;;;5003793;28;20472;-63
2021/05/14 05:12:01;;;;;;;33.95;13.55;;;10.20;99.90;;;;;;5004289;28;20467;-63
2021/05/14 05:14:27;;;;;;;47.10;13.82;;;10.20;99.90;;;;;;5006069;28;20103;-63
2021/05/14 05:16:54;;;;;;;33.47;12.75;;;10.20;99.90;;;;;;5002360;28;20591;-63
2021/05/14 05:19:20;;;;;;;50.80;15.15;;;10.20;99.90;;;;;;5005013;28;20056;-63
2021/05/14 05:21:46;;;;;;;40.90;14.15;;;10.30;99.90;;;;;;5005738;28;20099;-63
2021/05/14 05:24:12;;;;;;;42.05;14.68;;;10.30;99.90;;;;;;5003774;28;20376;-63
2021/05/14 05:26:38;;;;;;;34.33;12.73;;;10.30;99.90;;;;;;5007443;28;20460;-63
2021/05/14 05:29:04;;;;;;;36.85;14.13;;;10.40;99.90;;;;;;5007112;28;20045;-63
2021/05/14 05:31:30;;;;;;;38.28;14.85;;;10.40;99.90;;;;;;5007405;28;20029;-63
2021/05/14 05:33:56;;;;;;;34.10;13.23;;;10.40;99.90;;;;;;5005804;28;20137;-63
2021/05/14 05:36:22;;;;;;;30.85;14.93;;;10.40;99.90;;;;;;5000654;28;20545;-63
2021/05/14 05:38:50;;;;;;;35.45;14.25;;;10.40;99.90;;;;;;5006599;28;20043;-63
2021/05/14 05:41:16;;;;;;;33.00;13.57;;;10.50;99.90;;;;;;5003309;28;20040;-63
2021/05/14 05:43:43;;;;;;;32.03;14.23;;;10.50;99.90;;;;;;5005726;28;20064;-63
2021/05/14 05:46:09;;;;;;;46.05;15.45;;;10.50;99.90;;;;;;5003711;28;20037;-63
2021/05/14 05:48:35;;;;;;;36.58;14.07;;;10.60;99.90;;;;;;5003094;28;20485;-63
2021/05/14 05:51:01;;;;;;;29.38;13.07;;;10.60;99.90;;;;;;5002733;28;20037;-63
2021/05/14 05:53:27;;;;;;;30.40;14.25;;;10.60;99.90;;;;;;5002407;28;20532;-63
2021/05/14 05:55:53;;;;;;;40.85;15.60;;;10.60;99.90;;;;;;5002751;28;20045;-63
2021/05/14 05:58:18;;;;;;;35.63;14.85;;;10.70;99.90;;;;;;5001978;28;20030;-63
2021/05/14 06:00:47;;;;;;;39.75;13.63;;;10.70;99.90;;;;;;5005430;28;20170;-62
2021/05/14 06:03:14;;;;;;;43.78;15.30;;;10.70;99.90;;;;;;5006407;28;20033;-63
2021/05/14 06:05:40;;;;;;;46.25;16.25;;;10.70;99.90;;;;;;5005525;28;20370;-63
2021/05/14 06:08:07;;;;;;;44.50;15.30;;;10.70;99.90;;;;;;5004709;28;20037;-63
2021/05/14 06:10:33;;;;;;;42.65;15.20;;;10.80;99.90;;;;;;5004276;28;20084;-63
2021/05/14 06:12:59;;;;;;;37.53;14.65;;;10.80;99.90;;;;;;5004616;28;20522;-63
2021/05/14 06:15:25;;;;;;;39.70;13.70;;;10.70;99.90;;;;;;5002618;28;20053;-63
2021/05/14 06:17:51;;;;;;;45.05;14.88;;;10.70;99.90;;;;;;5007134;28;20108;-63
2021/05/14 06:20:21;;;;;;;41.45;14.65;;;10.70;99.90;;;;;;5002689;28;20034;-63
2021/05/14 06:22:47;;;;;;;38.60;14.18;;;10.70;99.90;;;;;;5004158;28;20813;-63
2021/05/14 06:25:13;;;;;;;31.52;14.93;;;10.70;99.90;;;;;;5005570;28;21100;-63
2021/05/14 06:27:39;;;;;;;40.20;15.32;;;10.70;99.90;;;;;;5005395;28;20512;-63
2021/05/14 06:30:06;;;;;;;40.72;13.82;;;10.70;99.90;;;;;;5006967;28;20124;-63
2021/05/14 06:32:32;;;;;;;42.55;15.52;;;10.70;99.90;;;;;;5007015;28;20033;-63
2021/05/14 06:34:58;;;;;;;33.65;11.27;;;10.70;99.90;;;;;;5006842;28;20060;-63
2021/05/14 06:37:24;;;;;;;32.13;12.45;;;10.70;99.90;;;;;;5002447;28;20100;-63
2021/05/14 06:39:50;;;;;;;35.00;12.30;;;10.60;99.90;;;;;;5006563;28;20047;-63
2021/05/14 06:42:16;;;;;;;30.27;12.45;;;10.70;99.90;;;;;;5001791;28;20033;-63
2021/05/14 06:44:42;;;;;;;33.83;12.98;;;10.70;99.90;;;;;;5005232;28;20121;-63
2021/05/14 06:47:08;;;;;;;44.38;13.73;;;10.70;99.90;;;;;;5003960;28;20030;-63
2021/05/14 06:49:34;;;;;;;36.28;13.57;;;10.80;99.90;;;;;;5001520;28;20052;-63
2021/05/14 06:52:00;;;;;;;32.22;12.45;;;10.70;99.90;;;;;;5008042;28;20115;-63
2021/05/14 06:54:26;;;;;;;43.20;13.13;;;10.70;99.90;;;;;;5006144;28;20193;-63
2021/05/14 06:56:51;;;;;;;41.05;12.15;;;10.70;99.90;;;;;;5001388;28;20550;-63
2021/05/14 06:59:18;;;;;;;38.35;12.90;;;10.70;99.90;;;;;;5004691;28;20057;-63
2021/05/14 07:01:44;;;;;;;38.45;13.75;;;10.70;99.90;;;;;;5009718;28;20049;-63
2021/05/14 07:04:10;;;;;;;36.90;12.98;;;10.80;99.90;;;;;;5010674;28;20052;-64
2021/05/14 07:06:36;;;;;;;42.25;16.05;;;10.70;99.90;;;;;;5011844;28;20125;-63
2021/05/14 07:09:03;;;;;;;36.05;14.63;;;10.70;99.90;;;;;;5010711;28;20029;-63
2021/05/14 07:11:29;;;;;;;36.92;14.07;;;10.60;99.90;;;;;;5009716;28;20050;-63
2021/05/14 07:13:55;;;;;;;36.10;13.90;;;10.50;99.90;;;;;;5008313;28;20176;-63
2021/05/14 07:16:21;;;;;;;45.13;15.43;;;10.50;99.90;;;;;;5008616;28;20045;-63
2021/05/14 07:18:46;;;;;;;41.03;13.43;;;10.50;99.90;;;;;;5006733;28;20548;-62
2021/05/14 07:21:12;;;;;;;47.63;14.88;;;10.50;99.90;;;;;;5006398;28;20277;-62
2021/05/14 07:23:38;;;;;;;39.67;13.82;;;10.40;99.90;;;;;;5006215;28;20392;-63
2021/05/14 07:26:04;;;;;;;39.17;13.93;;;10.50;99.90;;;;;;5009554;28;20122;-63
2021/05/14 07:28:29;;;;;;;44.03;16.13;;;10.60;99.90;;;;;;5008737;28;20423;-63
2021/05/14 07:30:55;;;;;;;40.60;12.90;;;10.70;99.90;;;;;;5008263;28;20053;-63
2021/05/14 07:33:21;;;;;;;35.90;11.57;;;10.80;99.90;;;;;;5006216;28;20037;-62
2021/05/14 07:35:47;;;;;;;38.95;11.25;;;10.90;99.90;;;;;;5009239;28;20044;-62
2021/05/14 07:38:13;;;;;;;39.60;10.25;;;10.90;99.90;;;;;;5010253;28;20030;-62
2021/05/14 07:40:40;;;;;;;34.28;11.55;;;11.00;99.90;;;;;;5008476;28;20037;-62
2021/05/14 07:43:06;;;;;;;33.22;11.55;;;11.20;99.90;;;;;;5009201;28;20032;-62
2021/05/14 07:45:32;;;;;;;35.47;11.27;;;11.30;99.90;;;;;;5008487;28;20061;-63
2021/05/14 07:47:58;;;;;;;28.67;10.45;;;11.60;99.90;;;;;;5011208;28;20289;-62
2021/05/14 07:50:26;;;;;;;36.80;11.48;;;11.70;99.90;;;;;;5003563;28;20087;-62
2021/05/14 07:52:52;;;;;;;26.10;10.00;;;11.80;99.90;;;;;;5010250;28;20034;-63
2021/05/14 07:55:17;;;;;;;30.55;11.20;;;11.90;99.90;;;;;;5008636;28;20049;-63
2021/05/14 07:57:43;;;;;;;29.60;9.93;;;12.30;99.90;;;;;;5002515;28;20029;-63
2021/05/14 08:00:10;;;;;;;26.80;9.43;;;12.90;99.90;;;;;;5007857;28;20120;-62
2021/05/14 08:02:35;;;;;;;23.83;9.02;;;13.20;99.90;;;;;;5009110;28;20029;-63
2021/05/14 08:05:01;;;;;;;26.70;9.95;;;13.30;99.90;;;;;;5003039;28;21201;-63
2021/05/14 08:07:27;;;;;;;28.02;10.10;;;13.40;99.90;;;;;;5008355;28;20030;-63
2021/05/14 08:09:53;;;;;;;19.88;9.00;;;13.40;99.90;;;;;;5000847;28;20083;-63
2021/05/14 08:12:18;;;;;;;24.02;10.93;;;13.30;99.90;;;;;;5004314;28;20465;-62
2021/05/14 08:14:45;;;;;;;25.05;10.95;;;13.30;99.90;;;;;;5002452;28;20168;-63
2021/05/14 08:17:10;;;;;;;27.17;10.63;;;13.30;99.90;;;;;;5004753;28;20057;-62
2021/05/14 08:19:36;;;;;;;33.75;11.05;;;13.20;99.90;;;;;;5008562;28;20141;-63
2021/05/14 08:22:02;;;;;;;27.55;10.68;;;13.30;99.90;;;;;;5005094;28;20033;-63
2021/05/14 08:24:28;;;;;;;28.10;10.55;;;13.60;99.90;;;;;;5008403;28;20138;-62
2021/05/14 08:26:54;;;;;;;23.70;9.48;;;13.60;99.90;;;;;;5005542;28;20037;-63
2021/05/14 08:29:20;;;;;;;18.88;9.27;;;13.40;99.90;;;;;;5009397;28;20093;-63
2021/05/14 08:31:46;;;;;;;18.33;9.48;;;13.30;99.90;;;;;;5006852;28;20033;-63
2021/05/14 08:34:12;;;;;;;25.40;10.18;;;13.30;99.90;;;;;;5008870;28;20639;-63
2021/05/14 08:36:39;;;;;;;24.25;10.88;;;13.20;99.90;;;;;;5006227;28;20045;-63
2021/05/14 08:39:07;;;;;;;27.52;11.43;;;13.20;99.90;;;;;;5008754;28;20037;-63
2021/05/14 08:41:34;;;;;;;29.85;11.70;;;13.20;99.90;;;;;;5006490;28;20040;-62
2021/05/14 08:44:01;;;;;;;24.75;9.65;;;13.30;99.90;;;;;;5008139;28;20026;-63
2021/05/14 08:46:29;;;;;;;23.13;9.75;;;13.40;99.90;;;;;;5006916;28;20029;-63
2021/05/14 08:48:56;;;;;;;27.00;10.45;;;13.40;99.90;;;;;;5005907;28;20033;-63
2021/05/14 08:51:27;;;;;;;26.38;10.35;;;13.50;99.90;;;;;;5007803;28;20032;-63
2021/05/14 08:54:01;;;;;;;25.60;9.57;;;13.60;99.90;;;;;;5006844;28;20116;-62
2021/05/14 08:56:27;;;;;;;18.88;9.20;;;13.80;99.90;;;;;;5005301;28;20144;-63
2021/05/14 08:58:53;;;;;;;26.27;10.55;;;13.90;99.90;;;;;;5005599;28;20029;-63
2021/05/14 09:01:19;;;;;;;22.45;8.80;;;13.80;99.90;;;;;;5006166;28;20191;-65
2021/05/14 09:04:02;;;;;;;27.63;11.15;;;13.70;99.90;;;;;;5005758;28;20121;-64
2021/05/14 09:06:38;;;;;;;20.92;8.15;;;13.70;99.90;;;;;;5008228;28;20094;-65
2021/05/14 09:09:07;;;;;;;27.45;9.88;;;13.70;99.90;;;;;;5006432;28;20109;-63
2021/05/14 09:11:48;;;;;;;23.40;9.63;;;13.80;99.90;;;;;;5004127;28;20393;-63
2021/05/14 09:14:45;;;;;;;25.17;9.07;;;13.60;99.90;;;;;;5004310;28;20029;-63
2021/05/14 09:17:18;;;;;;;26.25;10.35;;;13.60;99.90;;;;;;5007500;28;20057;-63
2021/05/14 09:19:47;;;;;;;27.60;10.27;;;13.70;99.90;;;;;;5005302;28;20025;-63
2021/05/14 09:22:23;;;;;;;20.92;8.82;;;13.80;99.90;;;;;;5003862;28;20389;-63
2021/05/14 09:24:57;;;;;;;25.27;10.82;;;13.80;99.90;;;;;;5005400;28;20076;-63
2021/05/14 09:27:29;;;;;;;27.70;11.48;;;13.70;99.90;;;;;;5007050;28;20025;-63
2021/05/14 09:29:58;;;;;;;35.88;11.52;;;13.70;99.90;;;;;;5006351;28;20569;-63
2021/05/14 09:32:32;;;;;;;24.48;9.63;;;13.60;99.90;;;;;;5007707;28;20025;-63
2021/05/14 09:35:01;;;;;;;36.92;12.13;;;13.50;99.90;;;;;;5002159;28;20047;-63
2021/05/14 09:37:28;;;;;;;24.17;10.02;;;13.70;99.90;;;;;;5004428;28;20037;-63
2021/05/14 09:40:12;;;;;;;26.50;10.55;;;14.10;99.90;;;;;;4999176;28;20549;-63
2021/05/14 09:42:39;;;;;;;37.80;9.93;;;14.50;99.90;;;;;;5003635;28;20116;-63
2021/05/14 09:45:24;;;;;;;27.88;9.50;;;14.70;99.90;;;;;;5006405;28;20026;-64
2021/05/14 09:48:16;;;;;;;21.35;8.10;;;14.70;99.90;;;;;;5006707;28;20034;-64
2021/05/14 09:50:44;;;;;;;28.92;10.40;;;14.50;99.90;;;;;;5004710;28;20286;-64
2021/05/14 09:53:18;;;;;;;23.52;8.70;;;14.70;99.90;;;;;;5007261;28;20021;-64
2021/05/14 09:55:55;;;;;;;24.23;8.93;;;15.10;99.90;;;;;;5006385;28;20069;-64
2021/05/14 09:58:24;;;;;;;28.35;8.45;;;15.20;99.90;;;;;;5005520;28;20033;-64
2021/05/14 10:00:50;;;;;;;19.25;8.00;;;15.00;99.90;;;;;;5003400;28;20556;-65
2021/05/14 10:03:18;;;;;;;19.92;8.25;;;14.90;99.90;;;;;;5006698;28;20045;-64
2021/05/14 10:05:45;;;;;;;21.90;8.50;;;15.10;99.90;;;;;;5004212;28;20044;-64
2021/05/14 10:08:14;;;;;;;24.15;9.68;;;15.00;99.90;;;;;;5005273;28;20017;-64
2021/05/14 10:10:41;;;;;;;22.95;8.75;;;14.90;99.90;;;;;;5004053;28;20032;-64
2021/05/14 10:13:08;;;;;;;18.85;7.22;;;15.00;99.90;;;;;;5005711;28;20044;-64
2021/05/14 10:15:34;;;;;;;22.35;8.02;;;14.90;99.90;;;;;;5006985;28;20053;-64
2021/05/14 10:18:03;;;;;;;25.58;9.10;;;14.80;99.90;;;;;;5005760;28;20060;-64
2021/05/14 10:20:30;;;;;;;20.58;7.82;;;14.80;99.90;;;;;;5002764;28;20038;-64
2021/05/14 10:22:58;;;;;;;19.67;7.53;;;14.80;99.90;;;;;;5004493;28;20080;-64
2021/05/14 10:25:44;;;;;;;19.42;7.75;;;14.80;99.90;;;;;;5006618;28;20854;-64
2021/05/14 10:28:19;;;;;;;17.90;7.88;;;14.40;99.90;;;;;;5005511;28;20029;-65
2021/05/14 10:31:05;;;;;;;23.67;8.90;;;14.30;99.90;;;;;;5008080;28;20061;-65
2021/05/14 10:33:51;;;;;;;22.73;8.27;;;14.30;99.90;;;;;;5004223;28;20421;-65
2021/05/14 10:36:20;;;;;;;22.52;8.00;;;14.30;99.90;;;;;;5001377;28;20037;-64
2021/05/14 10:39:05;;;;;;;25.48;10.43;;;14.10;99.90;;;;;;5007049;28;20505;-64
2021/05/14 10:41:31;;;;;;;27.02;10.10;;;14.00;99.90;;;;;;5004760;28;20942;-65
2021/05/14 10:44:05;;;;;;;21.02;8.77;;;13.90;99.90;;;;;;5007125;28;20109;-65
2021/05/14 10:46:32;;;;;;;26.90;9.98;;;13.90;99.90;;;;;;5005597;28;20061;-64
2021/05/14 10:49:10;;;;;;;21.15;9.23;;;14.00;99.90;;;;;;5007698;28;20037;-63
2021/05/14 10:51:51;;;;;;;24.50;9.23;;;14.00;99.90;;;;;;5006500;28;20025;-65
2021/05/14 10:54:39;;;;;;;17.35;7.60;;;14.00;99.90;;;;;;5007102;28;20134;-64
2021/05/14 10:57:11;;;;;;;22.60;8.85;;;13.90;99.90;;;;;;5005471;28;20065;-64
2021/05/14 10:59:38;;;;;;;22.08;8.07;;;14.00;99.90;;;;;;5005153;28;20030;-65
2021/05/14 11:02:27;;;;;;;23.85;8.13;;;14.00;99.90;;;;;;5005596;28;20037;-64
2021/05/14 11:04:53;;;;;;;25.55;8.32;;;13.80;99.90;;;;;;5008269;28;20065;-64
2021/05/14 11:07:42;;;;;;;25.63;8.98;;;13.80;99.90;;;;;;4999957;28;20134;-63
2021/05/14 11:10:14;;;;;;;29.60;9.65;;;13.80;99.90;;;;;;5006716;28;20060;-64
2021/05/14 11:12:45;;;;;;;26.83;9.73;;;13.80;99.90;;;;;;5004141;28;20046;-64
2021/05/14 11:15:19;;;;;;;23.25;9.02;;;13.80;99.90;;;;;;5005160;28;20046;-64
2021/05/14 11:18:07;;;;;;;25.63;10.68;;;13.70;99.90;;;;;;4996765;28;20060;-65
2021/05/14 11:20:44;;;;;;;19.63;9.20;;;13.70;99.90;;;;;;4998415;28;20112;-64
2021/05/14 11:23:34;;;;;;;25.75;10.43;;;13.60;99.90;;;;;;4997633;28;20052;-65
2021/05/14 11:26:01;;;;;;;27.08;9.27;;;13.50;99.90;;;;;;4999964;28;20674;-64
2021/05/14 11:28:47;;;;;;;25.67;10.88;;;13.30;99.90;;;;;;4998783;28;20083;-65
2021/05/14 11:31:22;;;;;;;35.10;11.85;;;13.20;99.90;;;;;;4999657;28;20034;-65
2021/05/14 11:33:49;;;;;;;29.98;12.20;;;13.00;99.90;;;;;;4998494;28;20063;-64
2021/05/14 11:36:15;;;;;;;29.83;12.88;;;12.90;99.90;;;;;;4999085;28;20049;-69
2021/05/14 11:38:46;;;;;;;34.50;12.35;;;13.10;99.90;;;;;;4997780;28;20067;-69
2021/05/14 11:41:24;;;;;;;31.70;12.70;;;13.30;99.90;;;;;;4999245;28;20386;-69
2021/05/14 11:43:57;;;;;;;25.55;13.07;;;13.60;99.90;;;;;;5002447;28;20030;-69
2021/05/14 11:46:24;;;;;;;31.80;16.15;;;13.90;99.90;;;;;;5007052;28;20520;-69
2021/05/14 11:48:50;;;;;;;30.88;13.43;;;14.20;99.90;;;;;;5011498;28;20636;-69
2021/05/14 11:51:16;;;;;;;28.50;10.95;;;14.40;99.90;;;;;;5003940;28;20029;-68
2021/05/14 11:53:42;;;;;;;28.02;10.90;;;14.30;99.90;;;;;;5005123;28;22269;-69
2021/05/14 11:56:08;;;;;;;28.30;9.60;;;14.20;99.90;;;;;;5008816;28;20461;-69
2021/05/14 11:58:34;;;;;;;26.45;11.52;;;14.10;99.90;;;;;;5010209;28;20447;-68
2021/05/14 12:01:03;;;;;;;28.70;11.23;;;13.90;99.90;;;;;;5008068;28;20083;-69
2021/05/14 12:03:28;;;;;;;32.70;12.63;;;13.70;99.90;;;;;;5009081;28;20017;-69
2021/05/14 12:06:03;;;;;;;29.63;10.88;;;13.60;99.90;;;;;;5003578;28;20037;-68
2021/05/14 12:08:29;;;;;;;28.98;11.82;;;13.60;99.90;;;;;;4988350;28;20042;-69
2021/05/14 12:10:55;;;;;;;39.55;13.52;;;13.50;99.90;;;;;;4966416;28;20053;-70
2021/05/14 12:13:29;;;;;;;31.58;12.65;;;13.60;99.90;;;;;;4967305;28;20026;-68
2021/05/14 12:16:03;;;;;;;32.42;11.73;;;13.70;99.90;;;;;;4965054;28;20058;-68
2021/05/14 12:18:32;;;;;;;30.45;12.57;;;13.80;99.90;;;;;;4968081;28;20093;-69
2021/05/14 12:21:00;;;;;;;31.95;11.75;;;13.80;99.90;;;;;;4964513;28;20494;-69
2021/05/14 12:23:26;;;;;;;34.45;10.98;;;13.60;99.90;;;;;;4967638;28;20073;-70
2021/05/14 12:25:57;;;;;;;29.73;10.32;;;13.50;99.90;;;;;;4960785;28;20109;-71
2021/05/14 12:28:47;;;;;;;36.33;11.50;;;13.30;99.90;;;;;;4990058;28;20030;-76
2021/05/14 12:31:21;;;;;;;38.80;12.45;;;13.10;99.90;;;;;;4966598;28;20034;-75
2021/05/14 12:34:09;;;;;;;36.75;13.30;;;13.00;99.90;;;;;;4964822;28;20143;-70
2021/05/14 12:36:37;;;;;;;32.03;12.27;;;12.90;99.90;;;;;;4966193;28;20421;-70
2021/05/14 12:39:25;;;;;;;31.92;11.95;;;12.80;99.90;;;;;;4967311;28;20125;-70